Time;durP1;ratioP1;P1;durP2;ratioP2;P2;SDS_P1;SDS_P2;PMS_P1;PMS_P2;Temp;Humidity;BMP_temperature;BMP_pressure;BME280_temperature;BME280_humidity;BME280_pressure;Samples;Min_cycle;Max_cycle;Signal;HPM_P1;HPM_P2
2021/10/19 00:03:43;;;;;;;48.50;28.60;;;;;;;7.85;82.32;99515.91;463118;1190;97723;-41
2021/10/19 00:13:50;;;;;;;43.30;27.30;;;;;;;7.84;82.21;99520.48;463341;1189;112097;-41
2021/10/19 00:23:57;;;;;;;47.30;28.50;;;;;;;7.88;82.34;99520.63;463191;1188;108505;-41
2021/10/19 00:34:04;;;;;;;47.70;27.60;;;;;;;7.97;82.42;99516.33;463406;1190;97676;-41
2021/10/19 00:44:11;;;;;;;46.10;26.70;;;;;;;7.98;82.32;99506.23;463080;1190;107070;-43
2021/10/19 01:04:25;;;;;;;44.10;25.70;;;;;;;7.70;82.20;99494.59;463392;1190;111396;-42
2021/10/19 01:14:32;;;;;;;45.40;27.40;;;;;;;7.61;82.26;99499.09;463020;1180;107475;-42
2021/10/19 01:24:40;;;;;;;51.60;32.50;;;;;;;7.44;82.31;99495.41;463814;1167;98018;-41
2021/10/19 01:34:47;;;;;;;54.30;32.40;;;;;;;7.31;82.44;99486.38;463291;1189;109068;-41
2021/10/19 01:44:55;;;;;;;60.20;35.40;;;;;;;7.26;82.42;99493.61;463455;1190;98616;-41
2021/10/19 01:55:04;;;;;;;60.30;35.60;;;;;;;7.19;82.44;99479.38;463298;1189;112837;-41
2021/10/19 02:05:11;;;;;;;48.40;31.70;;;;;;;7.08;82.48;99475.46;463498;1190;108558;-41
2021/10/19 02:15:21;;;;;;;58.50;31.10;;;;;;;6.99;82.63;99472.69;463152;1190;99028;-41
2021/10/19 02:25:29;;;;;;;52.00;31.30;;;;;;;6.92;82.85;99464.29;463350;1189;107701;-42
2021/10/19 02:35:36;;;;;;;58.80;33.60;;;;;;;6.86;83.01;99468.30;463147;1190;99009;-41
2021/10/19 02:45:43;;;;;;;52.40;33.30;;;;;;;6.83;83.10;99466.27;462498;1190;112103;-40
2021/10/19 02:55:50;;;;;;;51.00;33.00;;;;;;;6.75;83.23;99458.91;463317;1188;108623;-41
2021/10/19 03:05:56;;;;;;;48.10;31.00;;;;;;;6.70;83.46;99452.88;463081;1190;99049;-40
2021/10/19 03:16:04;;;;;;;57.90;35.20;;;;;;;6.65;83.70;99442.24;463324;1190;108464;-40
2021/10/19 03:36:20;;;;;;;62.60;37.50;;;;;;;6.54;84.11;99453.44;463381;1190;112185;-40
2021/10/19 03:46:27;;;;;;;61.20;36.90;;;;;;;6.47;84.29;99454.10;463412;1189;108444;-41
2021/10/19 03:56:35;;;;;;;66.40;38.00;;;;;;;6.43;84.40;99452.11;463248;1189;98975;-41
2021/10/19 04:06:42;;;;;;;72.80;40.10;;;;;;;6.40;84.53;99460.35;463371;1190;108531;-41
2021/10/19 04:16:50;;;;;;;65.60;37.30;;;;;;;6.34;84.51;99465.55;463343;1188;99693;-41
2021/10/19 04:26:57;;;;;;;64.80;41.00;;;;;;;6.29;84.50;99467.06;463137;1190;111544;-42
2021/10/19 04:37:05;;;;;;;85.80;44.70;;;;;;;6.21;84.56;99469.63;463244;1190;108531;-41
2021/10/19 04:47:12;;;;;;;88.40;49.40;;;;;;;6.16;84.58;99476.83;463281;1190;98593;-41
2021/10/19 04:57:19;;;;;;;83.90;46.80;;;;;;;6.12;84.81;99481.61;463428;1190;107585;-40
2021/10/19 05:07:26;;;;;;;84.80;48.70;;;;;;;6.10;84.81;99480.86;463240;1190;99025;-41
2021/10/19 05:17:33;;;;;;;71.40;39.10;;;;;;;6.07;84.82;99483.85;463164;1189;112089;-40
2021/10/19 05:27:41;;;;;;;59.30;36.30;;;;;;;6.05;84.81;99481.43;463237;1190;108509;-41
2021/10/19 05:37:48;;;;;;;62.40;36.60;;;;;;;6.05;84.84;99470.25;463460;1189;99031;-40
2021/10/19 05:47:55;;;;;;;58.80;34.80;;;;;;;6.16;85.08;99464.06;463231;1189;108753;-40
2021/10/19 05:58:03;;;;;;;67.20;35.70;;;;;;;6.31;85.02;99468.45;463261;1190;99012;-40
2021/10/19 06:08:28;;;;;;;61.70;35.50;;;;;;;6.46;84.96;99474.83;463294;1189;111079;-41
2021/10/19 06:18:35;;;;;;;65.60;34.40;;;;;;;6.62;85.01;99477.64;463228;1188;108443;-40
2021/10/19 06:28:49;;;;;;;52.30;32.30;;;;;;;7.00;85.03;99481.33;463221;1189;98626;-41
2021/10/19 06:38:56;;;;;;;50.40;31.50;;;;;;;7.50;84.93;99483.23;463157;1190;108229;-41
2021/10/19 06:49:03;;;;;;;56.20;32.70;;;;;;;7.92;84.92;99463.11;463254;1189;97780;-42
2021/10/19 06:59:10;;;;;;;54.20;30.70;;;;;;;8.56;84.76;99455.77;463339;1190;112098;-40
2021/10/19 07:09:18;;;;;;;53.10;29.70;;;;;;;9.39;84.36;99461.73;463395;1189;108706;-41
2021/10/19 07:19:25;;;;;;;37.60;22.10;;;;;;;9.89;83.65;99456.46;463316;1188;98590;-40
2021/10/19 07:29:32;;;;;;;35.50;21.60;;;;;;;10.10;83.25;99437.40;463330;1188;108489;-41
2021/10/19 07:39:39;;;;;;;29.30;17.50;;;;;;;10.40;83.10;99442.15;463043;1189;99237;-41
2021/10/19 07:49:47;;;;;;;26.80;14.70;;;;;;;11.64;83.31;99445.40;463127;1189;112249;-41
2021/10/19 07:59:54;;;;;;;32.10;19.10;;;;;;;12.86;82.22;99447.14;463294;1188;108861;-40
2021/10/19 08:10:02;;;;;;;19.90;11.30;;;;;;;13.49;81.08;99454.77;463211;1189;99038;-41
2021/10/19 08:20:10;;;;;;;22.30;13.40;;;;;;;13.87;79.35;99461.48;463200;1189;112218;-41
2021/10/19 08:30:20;;;;;;;14.50;10.10;;;;;;;14.25;77.21;99464.20;463365;1188;108559;-40
2021/10/19 08:40:28;;;;;;;12.90;8.20;;;;;;;14.27;76.38;99470.27;463309;1188;99121;-41
2021/10/19 08:50:35;;;;;;;15.60;7.60;;;;;;;14.38;75.81;99469.00;463263;1188;112008;-41
2021/10/19 09:00:43;;;;;;;9.80;5.70;;;;;;;14.50;74.49;99455.54;463200;1189;108858;-40
2021/10/19 09:10:49;;;;;;;7.00;5.50;;;;;;;14.53;73.36;99443.42;463144;1188;98606;-39
2021/10/19 09:20:57;;;;;;;9.80;6.00;;;;;;;14.57;72.89;99438.11;463206;1189;108602;-40
2021/10/19 09:31:05;;;;;;;7.80;5.40;;;;;;;14.46;71.75;99436.34;463362;1188;99006;-41
2021/10/19 09:41:12;;;;;;;9.90;5.70;;;;;;;14.33;70.89;99426.91;463344;1189;112167;-41
2021/10/19 09:51:20;;;;;;;11.10;6.00;;;;;;;14.44;70.66;99406.61;463329;1190;109024;-40
2021/10/19 10:01:27;;;;;;;10.20;5.20;;;;;;;14.49;69.87;99388.79;463231;1190;99009;-39
2021/10/19 10:11:38;;;;;;;10.00;5.60;;;;;;;14.65;69.17;99389.62;463347;1189;112115;-41
2021/10/19 10:21:54;;;;;;;10.10;5.90;;;;;;;15.04;68.79;99385.44;463275;1190;108793;-41
2021/10/19 10:32:01;;;;;;;6.60;4.30;;;;;;;15.25;68.05;99365.23;463449;1189;99012;-42
2021/10/19 10:42:07;;;;;;;6.70;4.70;;;;;;;15.34;67.74;99352.27;463239;1189;108675;-41
2021/10/19 10:52:15;;;;;;;6.90;4.70;;;;;;;15.47;66.95;99345.06;463123;1190;99162;-41
2021/10/19 11:02:25;;;;;;;6.70;4.80;;;;;;;15.62;66.09;99336.34;463267;1188;110705;-44
2021/10/19 11:12:34;;;;;;;9.40;5.30;;;;;;;15.73;65.69;99328.45;463367;1188;108487;-42
2021/10/19 11:22:42;;;;;;;10.90;6.00;;;;;;;15.91;65.26;99319.73;463222;1189;99006;-41
2021/10/19 11:32:49;;;;;;;9.60;5.50;;;;;;;15.88;64.58;99318.58;463162;1189;108666;-41
2021/10/19 11:53:06;;;;;;;8.60;4.80;;;;;;;15.72;64.30;99286.25;463268;1188;112900;-41
2021/10/19 12:03:13;;;;;;;7.30;4.80;;;;;;;15.59;63.94;99274.61;463201;1189;108548;-41
2021/10/19 12:13:19;;;;;;;7.80;6.10;;;;;;;15.37;63.42;99272.46;463128;1188;98616;-41
2021/10/19 12:23:28;;;;;;;7.20;5.00;;;;;;;15.21;62.94;99241.02;463295;1188;108915;-41
2021/10/19 12:33:35;;;;;;;8.90;5.10;;;;;;;15.19;62.91;99229.77;463266;1190;99003;-41
2021/10/19 12:53:52;;;;;;;11.10;5.20;;;;;;;15.27;63.05;99251.55;463575;1189;108475;-41
2021/10/19 13:04:00;;;;;;;10.30;5.40;;;;;;;15.28;62.93;99238.83;463338;1190;99015;-41
2021/10/19 13:14:06;;;;;;;8.10;5.60;;;;;;;15.32;63.19;99213.63;463432;1190;112085;-41
2021/10/19 13:24:13;;;;;;;12.00;6.10;;;;;;;15.47;62.96;99200.22;463456;1190;108569;-42
2021/10/19 13:44:24;;;;;;;14.30;6.80;;;;;;;15.68;62.25;99178.61;463417;1188;112188;-41
2021/10/19 14:06:14;;;;;;;10.00;7.10;;;;;;;14.96;62.33;99174.59;455369;1206;639853;-41
2021/10/19 14:16:18;;;;;;;11.20;8.00;;;;;;;14.49;62.88;99176.16;461030;1193;94334;-41
2021/10/19 14:26:21;;;;;;;13.70;8.30;;;;;;;14.10;63.00;99166.86;461138;1193;94323;-41
2021/10/19 14:36:26;;;;;;;12.50;8.70;;;;;;;13.83;63.54;99168.13;462324;1193;108448;-39
2021/10/19 14:46:33;;;;;;;13.30;8.80;;;;;;;13.64;64.11;99176.21;462092;1192;94316;-41
2021/10/19 14:56:37;;;;;;;20.40;11.90;;;;;;;13.45;64.49;99177.70;462220;1193;108503;-41
2021/10/19 15:06:41;;;;;;;17.70;9.90;;;;;;;13.28;64.87;99172.25;462134;1193;95123;-41
2021/10/19 15:16:46;;;;;;;23.60;13.00;;;;;;;13.18;65.08;99158.73;461670;1193;95819;-41
2021/10/19 15:26:51;;;;;;;24.70;15.20;;;;;;;13.01;65.45;99147.04;462199;1191;95667;-41
2021/10/19 15:36:54;;;;;;;16.50;12.10;;;;;;;12.82;65.85;99144.49;462075;1192;94530;-42
2021/10/19 15:46:59;;;;;;;17.60;11.80;;;;;;;12.67;66.13;99142.88;462060;1194;108560;-41
2021/10/19 15:57:03;;;;;;;22.60;12.70;;;;;;;12.46;66.37;99134.45;462541;1192;95032;-42
2021/10/19 16:07:06;;;;;;;28.90;17.60;;;;;;;12.30;66.67;99134.06;462304;1192;96353;-41
2021/10/19 16:17:10;;;;;;;26.40;16.00;;;;;;;12.16;66.99;99132.92;461641;1193;108476;-40
2021/10/19 16:27:14;;;;;;;26.60;17.60;;;;;;;12.06;67.22;99129.70;460995;1193;95059;-40
2021/10/19 16:57:49;;;;;;;26.60;17.10;;;;;;;11.40;68.12;99121.61;461814;1193;96608;-41
2021/10/19 17:07:53;;;;;;;25.80;15.70;;;;;;;11.33;68.30;99119.03;462018;1193;95916;-40
2021/10/19 17:17:57;;;;;;;28.90;14.90;;;;;;;11.25;68.49;99116.70;461639;1192;107857;-41
2021/10/19 17:28:01;;;;;;;23.50;14.60;;;;;;;11.16;68.69;99106.79;461613;1193;96011;-42
2021/10/19 17:38:05;;;;;;;19.70;12.50;;;;;;;11.13;68.76;99107.43;461501;1184;95939;-41
2021/10/19 17:48:10;;;;;;;20.10;13.30;;;;;;;11.14;68.87;99101.19;462019;1192;108527;-41
2021/10/19 17:58:14;;;;;;;20.30;13.10;;;;;;;11.06;69.06;99097.80;462429;1192;95102;-42
2021/10/19 18:08:19;;;;;;;22.30;14.00;;;;;;;10.98;69.10;99091.23;462096;1193;94961;-41
2021/10/19 18:28:27;;;;;;;21.90;13.60;;;;;;;10.81;69.30;99076.30;463391;1188;95906;-42
2021/10/19 18:38:31;;;;;;;23.50;14.00;;;;;;;10.84;69.38;99070.70;463287;1189;108770;-42
2021/10/19 18:48:36;;;;;;;23.80;14.20;;;;;;;10.83;69.50;99071.98;463245;1191;95051;-41
2021/10/19 18:58:39;;;;;;;24.80;14.20;;;;;;;10.74;69.62;99071.88;463201;1189;95346;-42
2021/10/19 19:08:43;;;;;;;22.30;14.40;;;;;;;10.68;69.69;99068.85;463225;1189;107150;-41
2021/10/19 19:18:47;;;;;;;23.80;16.00;;;;;;;10.71;69.84;99066.09;463222;1188;96623;-41
2021/10/19 19:28:51;;;;;;;25.60;14.40;;;;;;;10.69;70.07;99059.15;463412;1190;109434;-41
2021/10/19 19:38:54;;;;;;;22.20;16.30;;;;;;;10.64;70.16;99059.64;463535;1190;95091;-41
2021/10/19 19:48:59;;;;;;;26.30;15.10;;;;;;;10.59;70.21;99060.05;463373;1190;95789;-41
2021/10/19 19:59:03;;;;;;;19.50;12.80;;;;;;;10.58;70.42;99043.88;463309;1188;109595;-41
2021/10/19 20:09:07;;;;;;;27.00;16.70;;;;;;;10.56;70.66;99043.09;463310;1193;108554;-41
2021/10/19 20:19:11;;;;;;;30.50;16.80;;;;;;;10.50;70.73;99029.65;463397;1189;96733;-41
2021/10/19 20:29:15;;;;;;;24.10;15.20;;;;;;;10.47;70.87;99032.11;463202;1189;95125;-41
2021/10/19 20:39:19;;;;;;;23.50;14.40;;;;;;;10.51;71.03;99024.71;463273;1190;108427;-40
2021/10/19 20:49:23;;;;;;;27.10;15.30;;;;;;;10.54;71.16;99020.09;463267;1190;95870;-41
2021/10/19 21:09:31;;;;;;;24.20;15.50;;;;;;;10.48;71.36;99004.28;463141;1189;108650;-42
2021/10/19 21:19:35;;;;;;;25.50;14.50;;;;;;;10.50;71.42;98989.87;463256;1190;95936;-41
2021/10/19 21:29:38;;;;;;;23.30;13.00;;;;;;;10.53;71.63;98982.02;463214;1188;108502;-39
2021/10/19 21:39:42;;;;;;;24.30;13.80;;;;;;;10.52;71.70;98983.70;463176;1188;96538;-41
2021/10/19 21:49:45;;;;;;;25.80;15.40;;;;;;;10.47;71.76;98978.91;463396;1190;95116;-40
2021/10/19 21:59:49;;;;;;;21.10;13.40;;;;;;;10.47;71.78;98965.73;463315;1189;108323;-41
2021/10/19 22:09:52;;;;;;;14.90;10.60;;;;;;;10.66;71.95;98940.52;463178;1188;96581;-40
2021/10/19 22:19:56;;;;;;;20.60;13.20;;;;;;;10.86;72.05;98930.42;463247;1190;109743;-41
2021/10/19 22:29:59;;;;;;;18.40;13.10;;;;;;;10.92;71.87;98912.89;462998;1190;95054;-41
2021/10/19 22:40:09;;;;;;;16.80;10.90;;;;;;;11.02;71.65;98900.33;463069;1190;96005;-41
2021/10/19 22:50:14;;;;;;;19.30;10.40;;;;;;;11.10;71.51;98893.58;462714;1189;110298;-41
2021/10/19 23:00:18;;;;;;;16.60;10.20;;;;;;;11.11;71.50;98888.42;461742;1197;108398;-41
2021/10/19 23:10:22;;;;;;;19.30;9.90;;;;;;;11.10;71.37;98868.54;462823;1189;95114;-42
2021/10/19 23:20:29;;;;;;;11.80;7.70;;;;;;;11.16;71.21;98855.38;462959;1190;95870;-41
2021/10/19 23:30:33;;;;;;;14.10;8.40;;;;;;;11.26;71.11;98856.52;463342;1189;108538;-41
2021/10/19 23:40:37;;;;;;;13.70;8.50;;;;;;;11.31;70.96;98844.62;463325;1188;95041;-41
2021/10/19 23:50:43;;;;;;;12.20;7.50;;;;;;;11.35;70.79;98831.65;462993;1189;96826;-43
